Terminal Aerodrome Forecast
Issued by NWS Upton, NY

Home | Current Version | Previous Version | Text Only | Print | Product List | Glossary On
Versions: 1 2 3 4 5 6 7 8 9 10 11 12 13 14 15 16 17 18 19 20 21 22 23 24 25 26 27 28 29 30 31 32 33 34 35 36 37 38
172
FTUS41 KOKX 241128
TAFISP
TAF
KISP 241128Z 2412/2512 23005KT 2SM TSRA BR FEW004 BKN015 OVC030CB
     FM241330 24010KT 4SM SHRA BR SCT015 OVC020
     FM241400 28010KT P6SM SCT050
     FM241700 30012G20KT P6SM FEW050
     FM242200 26012KT P6SM FEW050
     FM250700 31005KT P6SM SCT050=

USA.gov is the U.S. government's official web portal to all federal, state and local government web resources and services.